createdAt,value
2023-01-19T00:01:42.596Z,99020.00
2023-01-19T00:04:11.044Z,99023.50
2023-01-19T00:06:39.614Z,99012.59
2023-01-19T00:09:07.465Z,99020.63
2023-01-19T00:11:35.761Z,99017.91
2023-01-19T00:14:03.805Z,99016.34
2023-01-19T00:16:32.078Z,99015.06
2023-01-19T00:19:00.068Z,99007.47
2023-01-19T00:21:29.422Z,99020.88
2023-01-19T00:23:57.307Z,99015.13
2023-01-19T00:26:25.451Z,99024.69
2023-01-19T00:28:53.286Z,99021.38
2023-01-19T00:31:22.037Z,99015.53
2023-01-19T00:33:51.659Z,99012.34
2023-01-19T00:36:20.965Z,99001.69
2023-01-19T00:38:48.885Z,99001.88
2023-01-19T00:41:18.004Z,99001.59
2023-01-19T00:43:45.861Z,99003.94
2023-01-19T00:46:15.019Z,98999.78
2023-01-19T00:48:42.952Z,99002.84
2023-01-19T00:51:11.229Z,98993.78
2023-01-19T00:53:39.122Z,98990.53
2023-01-19T00:56:07.592Z,98994.66
2023-01-19T00:58:35.432Z,98995.44
2023-01-19T01:01:05.258Z,98990.59
2023-01-19T01:03:33.329Z,98995.97
2023-01-19T01:06:01.756Z,99002.53
2023-01-19T01:08:30.715Z,99000.81
2023-01-19T01:10:58.889Z,99004.41
2023-01-19T01:13:28.188Z,99008.31
2023-01-19T01:15:57.494Z,99015.84
2023-01-19T01:18:26.444Z,99016.56
2023-01-19T01:21:01.925Z,99013.28
2023-01-19T01:23:29.915Z,99013.88
2023-01-19T01:25:58.162Z,99009.53
2023-01-19T01:28:26.381Z,99003.41
2023-01-19T01:30:57.606Z,99010.44
2023-01-19T01:33:40.976Z,99008.16
2023-01-19T01:36:12.157Z,99003.94
2023-01-19T01:38:41.081Z,99006.63
2023-01-19T01:41:09.663Z,99007.47
2023-01-19T01:43:49.088Z,99004.69
2023-01-19T01:46:18.431Z,98992.25
2023-01-19T01:49:00.207Z,98988.09
2023-01-19T01:51:34.392Z,98989.66
2023-01-19T01:54:16.839Z,98994.66
2023-01-19T01:56:48.216Z,98998.06
2023-01-19T01:59:29.531Z,99002.25
2023-01-19T02:02:19.965Z,99006.41
2023-01-19T02:04:52.859Z,99009.47
2023-01-19T02:07:48.996Z,98998.00
2023-01-19T02:10:36.603Z,98995.94
2023-01-19T02:13:21.252Z,98988.72
2023-01-19T02:15:55.084Z,98983.25
2023-01-19T02:18:26.688Z,98989.63
2023-01-19T02:21:24.506Z,98989.44
2023-01-19T02:24:00.637Z,98993.84
2023-01-19T02:26:39.985Z,98998.63
2023-01-19T02:29:14.690Z,99001.66
2023-01-19T02:31:42.966Z,98993.00
2023-01-19T02:34:15.585Z,98984.28
2023-01-19T02:36:50.704Z,98983.38
2023-01-19T02:39:25.547Z,98980.25
2023-01-19T02:41:57.554Z,98980.91
2023-01-19T02:44:28.246Z,98976.59
2023-01-19T02:46:56.915Z,98976.88
2023-01-19T02:49:28.694Z,98986.56
2023-01-19T02:51:58.005Z,98988.25
2023-01-19T02:54:45.627Z,98994.22
2023-01-19T02:57:31.606Z,99002.34
2023-01-19T03:00:29.268Z,99006.50
2023-01-19T03:03:23.617Z,99019.97
2023-01-19T03:06:12.067Z,99014.97
2023-01-19T03:08:54.673Z,99012.91
2023-01-19T03:11:27.766Z,99017.44
2023-01-19T03:14:09.159Z,99026.22
2023-01-19T03:16:41.158Z,99022.28
2023-01-19T03:19:27.784Z,99018.19
2023-01-19T03:22:03.533Z,99012.09
2023-01-19T03:24:37.939Z,99011.09
2023-01-19T03:27:29.477Z,99024.34
2023-01-19T03:30:12.541Z,99029.97
2023-01-19T03:32:49.916Z,99032.78
2023-01-19T03:35:20.778Z,99036.06
2023-01-19T03:37:53.366Z,99037.81
2023-01-19T03:40:22.707Z,99025.47
2023-01-19T03:42:51.506Z,99042.28
2023-01-19T03:45:19.897Z,99040.97
2023-01-19T03:47:48.353Z,99045.31
2023-01-19T03:50:25.254Z,99039.72
2023-01-19T03:53:09.435Z,99036.41
2023-01-19T03:55:39.806Z,99030.13
2023-01-19T03:58:08.098Z,99023.50
2023-01-19T04:00:36.758Z,99021.53
2023-01-19T04:03:06.744Z,99022.63
2023-01-19T04:05:34.633Z,99030.28
2023-01-19T04:08:04.004Z,99033.09
2023-01-19T04:10:32.184Z,99026.81
2023-01-19T04:13:02.140Z,99032.25
2023-01-19T04:15:31.223Z,99027.44
2023-01-19T04:18:01.143Z,99020.16
2023-01-19T04:20:29.696Z,99015.00
2023-01-19T04:23:01.760Z,99028.16
2023-01-19T04:25:29.992Z,99021.59
2023-01-19T04:28:01.030Z,99026.56
2023-01-19T04:30:29.105Z,99029.28
2023-01-19T04:32:59.950Z,99030.31
2023-01-19T04:35:29.543Z,99017.47
2023-01-19T04:37:57.483Z,99020.63
2023-01-19T04:40:26.674Z,99030.03
2023-01-19T04:42:54.647Z,99028.22
2023-01-19T04:45:22.835Z,99041.66
2023-01-19T04:47:51.478Z,99044.13
2023-01-19T04:50:19.807Z,99037.13
2023-01-19T04:52:48.144Z,99030.56
2023-01-19T04:55:17.514Z,99032.47
2023-01-19T04:57:46.067Z,99029.88
2023-01-19T05:00:14.891Z,99039.50
2023-01-19T05:02:46.025Z,99039.75
2023-01-19T05:05:14.552Z,99043.53
2023-01-19T05:07:43.456Z,99055.06
2023-01-19T05:10:13.017Z,99052.97
2023-01-19T05:12:42.354Z,99046.56
2023-01-19T05:15:11.461Z,99046.31
2023-01-19T05:17:39.310Z,99051.28
2023-01-19T05:20:09.518Z,99049.34
2023-01-19T05:22:37.313Z,99046.84
2023-01-19T05:25:08.925Z,99052.13
2023-01-19T05:27:37.807Z,99046.97
2023-01-19T05:30:07.052Z,99046.22
2023-01-19T05:32:35.017Z,99060.16
2023-01-19T05:35:04.499Z,99059.91
2023-01-19T05:37:32.892Z,99059.41
2023-01-19T05:40:01.133Z,99071.94
2023-01-19T05:42:30.339Z,99071.13
2023-01-19T05:45:00.786Z,99075.78
2023-01-19T05:47:32.015Z,99079.16
2023-01-19T05:50:00.273Z,99085.31
2023-01-19T05:52:28.168Z,99084.38
2023-01-19T05:54:56.397Z,99081.53
2023-01-19T05:57:24.953Z,99080.75
2023-01-19T05:59:53.242Z,99080.44
2023-01-19T06:02:21.902Z,99082.78
2023-01-19T06:04:50.132Z,99087.38
2023-01-19T06:07:17.934Z,99091.72
2023-01-19T06:09:46.117Z,99092.50
2023-01-19T06:12:14.594Z,99105.59
2023-01-19T06:14:42.858Z,99103.84
2023-01-19T06:17:10.827Z,99105.63
2023-01-19T06:19:40.734Z,99107.75
2023-01-19T06:22:09.094Z,99112.56
2023-01-19T06:24:37.387Z,99118.53
2023-01-19T06:27:06.767Z,99127.81
2023-01-19T06:29:36.433Z,99131.50
2023-01-19T06:32:04.599Z,99135.66
2023-01-19T06:34:32.936Z,99144.22
2023-01-19T06:37:00.846Z,99144.28
2023-01-19T06:39:29.013Z,99141.66
2023-01-19T06:41:56.974Z,99143.59
2023-01-19T06:44:26.170Z,99139.44
2023-01-19T06:47:15.152Z,99149.34
2023-01-19T06:49:42.933Z,99145.44
2023-01-19T06:52:18.496Z,99151.03
2023-01-19T06:54:46.766Z,99158.97
2023-01-19T06:57:15.376Z,99157.50
2023-01-19T06:59:43.531Z,99166.53
2023-01-19T07:02:26.233Z,99167.50
2023-01-19T07:04:56.989Z,99180.88
2023-01-19T07:07:25.689Z,99184.19
2023-01-19T07:09:54.350Z,99182.97
2023-01-19T07:12:23.417Z,99178.56
2023-01-19T07:14:52.925Z,99198.25
2023-01-19T07:17:20.807Z,99199.81
2023-01-19T07:19:49.069Z,99197.28
2023-01-19T07:22:17.004Z,99200.97
2023-01-19T07:24:45.197Z,99198.56
2023-01-19T07:27:13.361Z,99213.16
2023-01-19T07:29:41.855Z,99216.94
2023-01-19T07:32:10.065Z,99214.44
2023-01-19T07:34:38.237Z,99226.94
2023-01-19T07:37:06.133Z,99226.88
2023-01-19T07:39:36.925Z,99240.19
2023-01-19T07:42:04.952Z,99237.94
2023-01-19T07:44:33.389Z,99240.44
2023-01-19T07:47:01.280Z,99246.34
2023-01-19T07:49:30.510Z,99247.13
2023-01-19T07:51:58.415Z,99250.56
2023-01-19T07:54:26.774Z,99262.06
2023-01-19T07:56:55.335Z,99275.97
2023-01-19T07:59:23.935Z,99282.72
2023-01-19T08:01:53.605Z,99285.38
2023-01-19T08:04:22.183Z,99290.84
2023-01-19T08:06:50.137Z,99297.78
2023-01-19T08:09:18.551Z,99303.63
2023-01-19T08:11:46.873Z,99313.19
2023-01-19T08:14:15.103Z,99322.50
2023-01-19T08:16:43.009Z,99334.97
2023-01-19T08:19:11.427Z,99341.13
2023-01-19T08:21:39.381Z,99345.19
2023-01-19T08:24:07.907Z,99353.78
2023-01-19T08:26:36.117Z,99355.16
2023-01-19T08:29:06.126Z,99357.69
2023-01-19T08:31:34.041Z,99369.34
2023-01-19T08:34:02.545Z,99382.22
2023-01-19T08:36:30.564Z,99385.44
2023-01-19T08:38:58.787Z,99386.03
2023-01-19T08:41:27.083Z,99395.81
2023-01-19T08:43:55.320Z,99409.13
2023-01-19T08:46:23.310Z,99407.59
2023-01-19T08:48:51.694Z,99428.91
2023-01-19T08:51:19.956Z,99423.28
2023-01-19T08:53:48.647Z,99430.88
2023-01-19T08:56:17.663Z,99426.22
2023-01-19T08:58:56.259Z,99438.84
2023-01-19T09:01:31.527Z,99429.88
2023-01-19T09:03:59.817Z,99425.56
2023-01-19T09:06:28.626Z,99433.59
2023-01-19T09:08:57.865Z,99444.59
2023-01-19T09:11:25.816Z,99441.41
2023-01-19T09:13:54.046Z,99439.72
2023-01-19T09:16:22.319Z,99444.22
2023-01-19T09:18:51.606Z,99442.19
2023-01-19T09:21:19.627Z,99455.63
2023-01-19T09:23:49.384Z,99459.97
2023-01-19T09:26:17.620Z,99472.66
2023-01-19T09:28:45.954Z,99471.97
2023-01-19T09:31:15.407Z,99475.59
2023-01-19T09:33:43.712Z,99476.16
2023-01-19T09:36:11.624Z,99489.94
2023-01-19T09:38:39.926Z,99480.28
2023-01-19T09:41:21.182Z,99488.81
2023-01-19T09:43:57.615Z,99494.44
2023-01-19T09:46:41.787Z,99497.56
2023-01-19T09:49:21.853Z,99505.94
2023-01-19T09:51:51.252Z,99512.53
2023-01-19T09:54:36.127Z,99511.34
2023-01-19T09:57:09.660Z,99515.03
2023-01-19T09:59:39.132Z,99516.81
2023-01-19T10:02:25.473Z,99518.59
2023-01-19T10:05:00.644Z,99516.88
2023-01-19T10:07:55.037Z,99518.84
2023-01-19T10:10:32.415Z,99521.78
2023-01-19T10:13:13.280Z,99523.84
2023-01-19T10:16:10.366Z,99515.16
2023-01-19T10:18:51.794Z,99521.88
2023-01-19T10:21:33.799Z,99517.91
2023-01-19T10:24:13.514Z,99522.47
2023-01-19T10:26:47.575Z,99520.91
2023-01-19T10:29:36.516Z,99530.91
2023-01-19T10:32:13.927Z,99533.94
2023-01-19T10:34:42.012Z,99530.91
2023-01-19T10:37:37.442Z,99521.00
2023-01-19T10:40:11.463Z,99527.31
2023-01-19T10:42:42.267Z,99525.72
2023-01-19T10:45:22.085Z,99523.47
2023-01-19T10:47:50.535Z,99528.56
2023-01-19T10:50:27.187Z,99519.25
2023-01-19T10:52:58.585Z,99516.91
2023-01-19T10:55:33.242Z,99517.41
2023-01-19T10:58:02.204Z,99516.31
2023-01-19T11:00:40.512Z,99520.53
2023-01-19T11:03:25.569Z,99511.72
2023-01-19T11:05:53.524Z,99498.81
2023-01-19T11:08:31.601Z,99491.69
2023-01-19T11:11:05.315Z,99493.34
2023-01-19T11:13:34.600Z,99501.88
2023-01-19T11:16:29.323Z,99495.91
2023-01-19T11:19:02.127Z,99491.50
2023-01-19T11:21:33.157Z,99490.34
2023-01-19T11:24:05.601Z,99489.22
2023-01-19T11:26:48.426Z,99481.81
2023-01-19T11:29:23.294Z,99470.97
2023-01-19T11:31:53.433Z,99475.75
2023-01-19T11:34:38.165Z,99468.91
2023-01-19T11:37:27.420Z,99470.47
2023-01-19T11:39:59.492Z,99473.59
2023-01-19T11:42:30.493Z,99467.22
2023-01-19T11:44:59.724Z,99467.13
2023-01-19T11:47:42.507Z,99455.53
2023-01-19T11:50:24.455Z,99459.13
2023-01-19T11:53:14.576Z,99448.31
2023-01-19T11:55:52.856Z,99442.91
2023-01-19T11:58:20.984Z,99446.94
2023-01-19T12:01:02.540Z,99455.00
2023-01-19T12:03:32.852Z,99461.28
2023-01-19T12:06:09.593Z,99449.53
2023-01-19T12:08:43.584Z,99453.16
2023-01-19T12:11:18.115Z,99447.75
2023-01-19T12:13:46.854Z,99451.63
2023-01-19T12:16:20.439Z,99458.25
2023-01-19T12:19:04.363Z,99449.72
2023-01-19T12:21:32.416Z,99444.78
2023-01-19T12:24:17.031Z,99447.66
2023-01-19T12:27:01.075Z,99445.78
2023-01-19T12:29:33.681Z,99440.63
2023-01-19T12:32:13.812Z,99443.63
2023-01-19T12:34:52.207Z,99449.22
2023-01-19T12:37:42.166Z,99461.28
2023-01-19T12:40:29.603Z,99460.59
2023-01-19T12:43:02.270Z,99460.81
2023-01-19T12:45:36.410Z,99453.16
2023-01-19T12:48:05.476Z,99450.44
2023-01-19T12:50:38.310Z,99441.34
2023-01-19T12:53:18.963Z,99443.94
2023-01-19T12:56:00.232Z,99445.38
2023-01-19T12:58:29.033Z,99447.47
2023-01-19T13:01:16.280Z,99449.50
2023-01-19T13:03:58.648Z,99450.06
2023-01-19T13:06:48.452Z,99459.19
2023-01-19T13:09:28.573Z,99460.81
2023-01-19T13:12:23.813Z,99448.66
2023-01-19T13:15:30.703Z,99465.47
2023-01-19T13:18:00.777Z,99464.13
2023-01-19T13:20:56.040Z,99472.63
2023-01-19T13:23:27.338Z,99471.28
2023-01-19T13:26:05.249Z,99477.91
2023-01-19T13:28:39.821Z,99481.84
2023-01-19T13:31:10.246Z,99482.47
2023-01-19T13:33:49.310Z,99478.47
2023-01-19T13:36:21.264Z,99484.66
2023-01-19T13:38:51.984Z,99483.75
2023-01-19T13:41:25.313Z,99487.66
2023-01-19T13:44:24.279Z,99481.31
2023-01-19T13:46:56.589Z,99489.38
2023-01-19T13:49:31.342Z,99491.94
2023-01-19T13:52:06.976Z,99497.06
2023-01-19T13:54:34.809Z,99494.41
2023-01-19T13:57:04.344Z,99505.50
2023-01-19T13:59:32.376Z,99502.53
2023-01-19T14:02:13.600Z,99502.25
2023-01-19T14:04:41.584Z,99509.78
2023-01-19T14:07:26.618Z,99501.03
2023-01-19T14:10:13.013Z,99513.03
2023-01-19T14:12:58.171Z,99513.81
2023-01-19T14:15:28.392Z,99522.75
2023-01-19T14:18:14.873Z,99526.50
2023-01-19T14:21:06.197Z,99520.84
2023-01-19T14:23:43.485Z,99530.84
2023-01-19T14:26:46.674Z,99528.94
2023-01-19T14:29:33.157Z,99539.25
2023-01-19T14:32:01.126Z,99531.59
2023-01-19T14:34:46.333Z,99526.44
2023-01-19T14:37:20.326Z,99537.22
2023-01-19T14:39:51.848Z,99535.25
2023-01-19T14:42:33.283Z,99536.75
2023-01-19T14:45:08.140Z,99536.16
2023-01-19T14:47:40.090Z,99535.53
2023-01-19T14:50:35.500Z,99544.84
2023-01-19T14:53:07.077Z,99540.31
2023-01-19T14:55:50.771Z,99548.09
2023-01-19T14:58:21.205Z,99548.72
2023-01-19T15:00:50.289Z,99545.31
2023-01-19T15:03:18.384Z,99550.94
2023-01-19T15:05:47.525Z,99552.66
2023-01-19T15:08:19.603Z,99551.72
2023-01-19T15:10:49.172Z,99555.13
2023-01-19T15:13:24.097Z,99556.38
2023-01-19T15:15:53.586Z,99554.63
2023-01-19T15:18:26.408Z,99564.91
2023-01-19T15:21:03.240Z,99557.31
2023-01-19T15:23:33.114Z,99569.47
2023-01-19T15:26:04.138Z,99563.53
2023-01-19T15:28:32.752Z,99562.69
2023-01-19T15:31:02.413Z,99564.81
2023-01-19T15:33:30.885Z,99569.63
2023-01-19T15:35:59.390Z,99573.84
2023-01-19T15:38:27.924Z,99566.66
2023-01-19T15:40:57.476Z,99568.81
2023-01-19T15:43:25.433Z,99572.06
2023-01-19T15:46:02.156Z,99578.09
2023-01-19T15:48:30.181Z,99572.34
2023-01-19T15:50:58.586Z,99569.84
2023-01-19T15:53:27.837Z,99574.31
2023-01-19T15:55:57.133Z,99570.47
2023-01-19T15:58:25.503Z,99583.91
2023-01-19T16:00:56.690Z,99578.81
2023-01-19T16:03:26.256Z,99579.75
2023-01-19T16:05:55.683Z,99576.84
2023-01-19T16:08:23.567Z,99583.81
2023-01-19T16:10:51.865Z,99581.50
2023-01-19T16:13:19.870Z,99583.63
2023-01-19T16:15:49.173Z,99585.19
2023-01-19T16:18:17.171Z,99587.56
2023-01-19T16:20:45.438Z,99588.28
2023-01-19T16:23:15.466Z,99596.28
2023-01-19T16:25:45.745Z,99595.63
2023-01-19T16:28:14.453Z,99603.59
2023-01-19T16:30:42.772Z,99601.25
2023-01-19T16:33:12.122Z,99606.25
2023-01-19T16:35:40.485Z,99598.59
2023-01-19T16:38:09.718Z,99602.50
2023-01-19T16:40:38.169Z,99610.00
2023-01-19T16:43:06.232Z,99616.50
2023-01-19T16:45:34.666Z,99616.34
2023-01-19T16:48:02.650Z,99621.81
2023-01-19T16:50:30.943Z,99627.22
2023-01-19T16:52:59.224Z,99629.41
2023-01-19T16:55:27.473Z,99646.25
2023-01-19T16:57:55.575Z,99655.94
2023-01-19T17:00:24.911Z,99658.53
2023-01-19T17:02:52.800Z,99666.19
2023-01-19T17:05:21.078Z,99665.94
2023-01-19T17:07:48.923Z,99674.22
2023-01-19T17:10:17.332Z,99671.38
2023-01-19T17:12:45.279Z,99678.53
2023-01-19T17:15:13.523Z,99683.56
2023-01-19T17:17:41.450Z,99689.75
2023-01-19T17:20:11.160Z,99681.47
2023-01-19T17:22:39.224Z,99676.38
2023-01-19T17:25:09.228Z,99684.75
2023-01-19T17:27:37.210Z,99679.19
2023-01-19T17:30:07.335Z,99687.38
2023-01-19T17:32:36.071Z,99679.38
2023-01-19T17:35:04.623Z,99686.31
2023-01-19T17:37:32.574Z,99685.41
2023-01-19T17:40:00.988Z,99687.38
2023-01-19T17:42:28.909Z,99690.03
2023-01-19T17:44:57.224Z,99688.56
2023-01-19T17:47:26.197Z,99682.13
2023-01-19T17:49:54.493Z,99691.31
2023-01-19T17:52:22.532Z,99688.78
2023-01-19T17:54:51.347Z,99688.00
2023-01-19T17:57:19.398Z,99700.19
2023-01-19T17:59:48.028Z,99693.28
2023-01-19T18:02:16.230Z,99694.75
2023-01-19T18:04:44.669Z,99699.03
2023-01-19T18:07:12.616Z,99700.50
2023-01-19T18:09:40.890Z,99698.88
2023-01-19T18:12:08.912Z,99700.91
2023-01-19T18:14:37.197Z,99702.38
2023-01-19T18:17:05.222Z,99702.16
2023-01-19T18:19:33.553Z,99697.09
2023-01-19T18:22:02.764Z,99701.38
2023-01-19T18:24:31.069Z,99695.34
2023-01-19T18:26:59.064Z,99692.88
2023-01-19T18:29:27.924Z,99693.59
2023-01-19T18:31:55.929Z,99696.78
2023-01-19T18:34:24.290Z,99689.91
2023-01-19T18:36:52.383Z,99686.53
2023-01-19T18:39:20.615Z,99695.97
2023-01-19T18:41:48.476Z,99686.75
2023-01-19T18:44:16.863Z,99685.94
2023-01-19T18:46:44.941Z,99685.53
2023-01-19T18:49:14.012Z,99682.09
2023-01-19T18:51:42.214Z,99680.19
2023-01-19T18:54:11.199Z,99685.63
2023-01-19T18:56:54.262Z,99681.22
2023-01-19T18:59:22.582Z,99682.66
2023-01-19T19:01:50.559Z,99679.91
2023-01-19T19:04:18.756Z,99686.31
2023-01-19T19:06:46.682Z,99688.94
2023-01-19T19:09:14.912Z,99687.19
2023-01-19T19:11:43.603Z,99687.25
2023-01-19T19:14:11.839Z,99686.22
2023-01-19T19:16:39.751Z,99685.44
2023-01-19T19:19:08.730Z,99692.97
2023-01-19T19:21:36.635Z,99692.66
2023-01-19T19:24:04.956Z,99689.22
2023-01-19T19:26:32.903Z,99694.31
2023-01-19T19:29:03.926Z,99694.88
2023-01-19T19:31:32.404Z,99691.72
2023-01-19T19:34:01.767Z,99683.88
2023-01-19T19:36:30.032Z,99682.94
2023-01-19T19:39:00.110Z,99676.88
2023-01-19T19:41:29.003Z,99681.66
2023-01-19T19:43:57.317Z,99686.31
2023-01-19T19:46:26.476Z,99679.59
2023-01-19T19:48:55.080Z,99682.19
2023-01-19T19:51:27.880Z,99693.75
2023-01-19T19:53:59.045Z,99693.38
2023-01-19T19:56:29.563Z,99689.34
2023-01-19T19:59:00.941Z,99688.28
2023-01-19T20:01:33.387Z,99696.72
2023-01-19T20:04:08.077Z,99688.00
2023-01-19T20:06:40.691Z,99676.16
2023-01-19T20:09:10.877Z,99685.47
2023-01-19T20:11:40.041Z,99693.22
2023-01-19T20:14:10.891Z,99692.06
2023-01-19T20:16:39.391Z,99689.00
2023-01-19T20:19:08.264Z,99689.41
2023-01-19T20:21:39.192Z,99696.47
2023-01-19T20:24:14.775Z,99706.72
2023-01-19T20:26:46.244Z,99708.69
2023-01-19T20:29:16.866Z,99713.69
2023-01-19T20:31:48.080Z,99701.53
2023-01-19T20:34:19.605Z,99701.31
2023-01-19T20:36:49.906Z,99708.97
2023-01-19T20:39:19.726Z,99705.38
2023-01-19T20:41:50.777Z,99699.00
2023-01-19T20:44:23.142Z,99713.41
2023-01-19T20:46:51.191Z,99713.88
2023-01-19T20:49:19.715Z,99707.31
2023-01-19T20:51:47.756Z,99705.66
2023-01-19T20:54:18.553Z,99721.03
2023-01-19T20:56:46.575Z,99719.47
2023-01-19T20:59:15.181Z,99721.69
2023-01-19T21:01:43.996Z,99732.69
2023-01-19T21:04:13.472Z,99733.94
2023-01-19T21:06:41.736Z,99736.69
2023-01-19T21:09:11.420Z,99741.88
2023-01-19T21:11:40.167Z,99743.56
2023-01-19T21:14:08.409Z,99739.25
2023-01-19T21:16:37.892Z,99750.63
2023-01-19T21:19:06.729Z,99744.94
2023-01-19T21:21:34.709Z,99742.75
2023-01-19T21:24:04.298Z,99741.00
2023-01-19T21:26:33.718Z,99742.88
2023-01-19T21:29:03.221Z,99741.78
2023-01-19T21:31:32.231Z,99747.09
2023-01-19T21:34:00.449Z,99745.91
2023-01-19T21:36:28.563Z,99745.72
2023-01-19T21:39:00.907Z,99742.41
2023-01-19T21:41:30.602Z,99745.41
2023-01-19T21:44:00.550Z,99746.78
2023-01-19T21:46:29.755Z,99754.41
2023-01-19T21:49:03.868Z,99760.13
2023-01-19T21:51:34.989Z,99761.19
2023-01-19T21:54:05.345Z,99768.75
2023-01-19T21:56:33.810Z,99773.53
2023-01-19T21:59:03.718Z,99775.41
2023-01-19T22:01:33.345Z,99769.63
2023-01-19T22:04:01.896Z,99763.44
2023-01-19T22:06:30.301Z,99777.75
2023-01-19T22:08:58.689Z,99776.06
2023-01-19T22:11:27.088Z,99779.00
2023-01-19T22:13:55.577Z,99775.31
2023-01-19T22:16:25.014Z,99784.28
2023-01-19T22:19:02.211Z,99786.34
2023-01-19T22:21:33.471Z,99789.81
2023-01-19T22:24:03.313Z,99791.16
2023-01-19T22:26:32.426Z,99794.09
2023-01-19T22:29:01.941Z,99800.06
2023-01-19T22:31:30.933Z,99798.19
2023-01-19T22:33:59.584Z,99796.91
2023-01-19T22:36:30.465Z,99786.44
2023-01-19T22:39:02.402Z,99789.50
2023-01-19T22:41:33.177Z,99794.78
2023-01-19T22:44:07.283Z,99786.03
2023-01-19T22:46:37.081Z,99786.31
2023-01-19T22:49:07.871Z,99784.56
2023-01-19T22:51:36.694Z,99786.06
2023-01-19T22:54:05.229Z,99787.22
2023-01-19T22:56:36.073Z,99783.28
2023-01-19T22:59:05.748Z,99793.41
2023-01-19T23:01:44.353Z,99788.97
2023-01-19T23:04:15.239Z,99792.13
2023-01-19T23:06:44.027Z,99787.03
2023-01-19T23:09:14.507Z,99791.66
2023-01-19T23:11:45.202Z,99799.19
2023-01-19T23:14:16.496Z,99800.38
2023-01-19T23:16:44.885Z,99802.47
2023-01-19T23:19:14.283Z,99806.31
2023-01-19T23:21:42.403Z,99806.69
2023-01-19T23:24:10.892Z,99806.84
2023-01-19T23:26:39.244Z,99811.28
2023-01-19T23:29:14.485Z,99816.44
2023-01-19T23:31:44.617Z,99815.44
2023-01-19T23:34:14.417Z,99812.75
2023-01-19T23:36:43.675Z,99818.94
2023-01-19T23:39:18.339Z,99818.03
2023-01-19T23:41:46.515Z,99816.16
2023-01-19T23:44:17.330Z,99815.06
2023-01-19T23:46:46.146Z,99822.44
2023-01-19T23:49:14.897Z,99821.25
2023-01-19T23:51:43.219Z,99824.66
2023-01-19T23:54:12.449Z,99819.41
2023-01-19T23:56:40.585Z,99830.13
2023-01-19T23:59:11.751Z,99825.88
